createdAt,value
2023-04-20T00:03:36.276Z,6.49
2023-04-20T00:06:11.500Z,6.82
2023-04-20T00:08:40.456Z,6.69
2023-04-20T00:11:07.444Z,6.75
2023-04-20T00:16:18.170Z,6.77
2023-04-20T00:21:37.559Z,6.61
2023-04-20T00:26:48.391Z,6.66
2023-04-20T00:29:15.917Z,6.62
2023-04-20T00:31:44.399Z,6.37
2023-04-20T00:34:14.054Z,6.53
2023-04-20T00:36:45.609Z,6.49
2023-04-20T00:39:24.106Z,6.49
2023-04-20T00:41:52.328Z,6.43
2023-04-20T00:44:21.721Z,6.29
2023-04-20T00:46:50.700Z,6.34
2023-04-20T00:49:19.217Z,6.33
2023-04-20T00:51:46.611Z,6.40
2023-04-20T00:54:13.566Z,6.37
2023-04-20T00:56:47.564Z,6.24
2023-04-20T00:59:14.300Z,6.11
2023-04-20T01:01:43.867Z,6.09
2023-04-20T01:04:21.114Z,6.02
2023-04-20T01:06:49.256Z,6.06
2023-04-20T01:09:19.975Z,5.99
2023-04-20T01:11:46.776Z,5.94
2023-04-20T01:14:13.750Z,5.86
2023-04-20T01:16:40.577Z,5.85
2023-04-20T01:19:07.517Z,5.82
2023-04-20T01:21:36.361Z,5.53
2023-04-20T01:24:05.707Z,5.82
2023-04-20T01:26:36.176Z,5.58
2023-04-20T01:29:05.146Z,5.79
2023-04-20T01:31:32.457Z,5.74
2023-04-20T01:34:00.350Z,5.62
2023-04-20T01:36:34.543Z,5.74
2023-04-20T01:39:05.745Z,5.76
2023-04-20T01:41:33.721Z,5.78
2023-04-20T01:44:06.172Z,5.77
2023-04-20T01:46:33.010Z,5.91
2023-04-20T01:49:07.634Z,5.98
2023-04-20T01:51:42.251Z,6.02
2023-04-20T01:54:13.827Z,6.15
2023-04-20T01:56:55.530Z,6.09
2023-04-20T01:59:26.109Z,6.18
2023-04-20T02:01:55.617Z,6.15
2023-04-20T02:04:37.812Z,6.16
2023-04-20T02:07:05.393Z,6.15
2023-04-20T02:09:37.579Z,5.61
2023-04-20T02:12:12.902Z,5.84
2023-04-20T02:14:46.997Z,6.10
2023-04-20T02:17:27.285Z,5.87
2023-04-20T02:19:58.107Z,6.07
2023-04-20T02:22:33.727Z,5.74
2023-04-20T02:25:08.434Z,5.95
2023-04-20T02:27:38.410Z,6.02
2023-04-20T02:30:06.743Z,6.02
2023-04-20T02:32:33.766Z,5.96
2023-04-20T02:35:03.048Z,6.03
2023-04-20T02:37:31.291Z,6.03
2023-04-20T02:40:05.691Z,6.06
2023-04-20T02:42:37.163Z,5.98
2023-04-20T02:45:05.586Z,5.72
2023-04-20T02:47:33.837Z,5.87
2023-04-20T02:50:02.841Z,6.05
2023-04-20T02:55:14.571Z,6.10
2023-04-20T02:57:41.165Z,6.12
2023-04-20T03:00:16.363Z,6.09
2023-04-20T03:02:51.540Z,6.12
2023-04-20T03:05:25.383Z,6.08
2023-04-20T03:07:52.245Z,6.03
2023-04-20T03:10:27.362Z,5.90
2023-04-20T03:12:55.781Z,5.91
2023-04-20T03:15:26.027Z,6.04
2023-04-20T03:17:56.850Z,6.09
2023-04-20T03:20:26.277Z,6.09
2023-04-20T03:25:52.252Z,6.09
2023-04-20T03:28:28.489Z,5.81
2023-04-20T03:30:59.112Z,5.95
2023-04-20T03:33:33.019Z,5.93
2023-04-20T03:36:01.152Z,5.83
2023-04-20T03:38:31.302Z,5.98
2023-04-20T03:40:58.339Z,5.73
2023-04-20T03:43:30.250Z,5.86
2023-04-20T03:45:59.197Z,5.59
2023-04-20T03:48:29.233Z,5.75
2023-04-20T03:56:31.244Z,5.66
2023-04-20T03:59:02.167Z,5.68
2023-04-20T04:01:29.111Z,5.63
2023-04-20T04:03:57.443Z,5.63
2023-04-20T04:09:40.025Z,5.65
2023-04-20T04:12:08.619Z,5.41
2023-04-20T04:14:38.672Z,5.49
2023-04-20T04:17:05.747Z,5.62
2023-04-20T04:19:37.616Z,5.40
2023-04-20T04:22:05.089Z,5.64
2023-04-20T04:24:33.505Z,5.61
2023-04-20T04:27:05.500Z,5.57
2023-04-20T04:29:36.280Z,5.52
2023-04-20T04:32:06.477Z,5.38
2023-04-20T04:35:28.280Z,5.45
2023-04-20T04:37:56.452Z,5.52
2023-04-20T04:43:16.686Z,5.40
2023-04-20T04:45:44.696Z,5.37
2023-04-20T04:48:15.404Z,5.20
2023-04-20T04:50:46.795Z,5.14
2023-04-20T04:56:05.056Z,5.00
2023-04-20T04:58:44.481Z,4.99
2023-04-20T05:04:15.396Z,5.18
2023-04-20T05:09:34.220Z,5.17
2023-04-20T05:15:07.409Z,5.11
2023-04-20T05:17:39.359Z,5.16
2023-04-20T05:20:12.768Z,4.54
2023-04-20T05:23:15.896Z,5.20
2023-04-20T05:25:48.884Z,4.80
2023-04-20T05:28:28.000Z,4.99
2023-04-20T05:31:16.280Z,4.77
2023-04-20T05:33:45.924Z,5.08
2023-04-20T05:55:26.063Z,5.64
2023-04-20T05:57:56.058Z,5.50
2023-04-20T06:00:34.363Z,5.96
2023-04-20T06:03:04.323Z,5.66
2023-04-20T06:05:39.645Z,5.91
2023-04-20T06:10:53.797Z,5.82
2023-04-20T06:13:28.380Z,5.86
2023-04-20T06:15:56.269Z,6.14
2023-04-20T06:21:16.532Z,5.92
2023-04-20T06:23:46.306Z,6.12
2023-04-20T06:26:22.471Z,5.84
2023-04-20T06:28:55.625Z,6.34
2023-04-20T06:31:28.328Z,6.08
2023-04-20T06:33:57.119Z,6.13
2023-04-20T06:36:30.650Z,5.85
2023-04-20T06:38:58.977Z,6.29
2023-04-20T06:41:27.549Z,6.11
2023-04-20T06:46:51.108Z,6.35
2023-04-20T06:49:20.505Z,6.07
2023-04-20T06:51:48.553Z,6.73
2023-04-20T06:54:21.249Z,6.77
2023-04-20T07:02:34.194Z,6.39
2023-04-20T07:05:14.774Z,6.61
2023-04-20T07:07:42.127Z,6.60
2023-04-20T07:10:12.687Z,6.56
2023-04-20T07:12:45.033Z,6.51
2023-04-20T07:15:18.329Z,6.45
2023-04-20T07:17:52.565Z,6.26
2023-04-20T07:20:21.869Z,6.26
2023-04-20T07:22:53.458Z,6.31
2023-04-20T07:25:23.703Z,6.49
2023-04-20T07:30:37.877Z,6.68
2023-04-20T07:36:20.068Z,6.76
2023-04-20T07:38:50.435Z,6.81
2023-04-20T07:41:24.984Z,6.55
2023-04-20T07:43:52.062Z,6.70
2023-04-20T07:46:26.966Z,6.76
2023-04-20T07:48:59.949Z,7.20
2023-04-20T07:54:14.287Z,7.27
2023-04-20T07:56:42.274Z,7.31
2023-04-20T07:59:22.526Z,7.33
2023-04-20T08:02:11.695Z,7.32
2023-04-20T08:04:46.071Z,7.68
2023-04-20T08:07:15.841Z,7.80
2023-04-20T08:09:55.421Z,8.65
2023-04-20T08:12:42.611Z,8.89
2023-04-20T08:15:13.071Z,8.95
2023-04-20T08:17:44.586Z,9.12
2023-04-20T08:20:17.845Z,9.25
2023-04-20T08:22:50.119Z,9.17
2023-04-20T08:25:21.002Z,9.00
2023-04-20T08:28:32.937Z,9.36
2023-04-20T08:31:08.473Z,9.30
2023-04-20T08:33:40.933Z,9.73
2023-04-20T08:36:07.778Z,9.16
2023-04-20T08:38:45.005Z,9.12
2023-04-20T08:44:07.680Z,9.29
2023-04-20T08:47:12.266Z,9.89
2023-04-20T08:53:07.063Z,9.85
2023-04-20T09:14:12.153Z,10.42
2023-04-20T09:22:54.351Z,10.01
2023-04-20T09:25:34.151Z,10.33
2023-04-20T09:28:07.548Z,10.33
2023-04-20T09:30:51.824Z,11.06
2023-04-20T09:33:20.410Z,11.00
2023-04-20T09:38:34.713Z,11.35
2023-04-20T09:43:45.859Z,11.06
2023-04-20T09:46:22.887Z,10.71
2023-04-20T09:49:06.608Z,10.60
2023-04-20T09:52:10.020Z,11.03
2023-04-20T09:54:38.782Z,11.33
2023-04-20T09:59:53.313Z,11.08
2023-04-20T10:02:36.409Z,11.29
2023-04-20T10:08:11.695Z,11.81
2023-04-20T10:16:40.772Z,11.85
2023-04-20T10:19:21.792Z,11.92
2023-04-20T10:22:05.913Z,12.03
2023-04-20T10:30:32.994Z,11.54
2023-04-20T10:36:05.930Z,11.68
2023-04-20T10:38:51.458Z,11.72
2023-04-20T10:41:20.994Z,11.65
2023-04-20T10:43:48.035Z,11.48
2023-04-20T10:46:26.190Z,11.07
2023-04-20T10:49:14.674Z,11.41
2023-04-20T10:51:56.926Z,11.40
2023-04-20T10:54:35.172Z,11.77
2023-04-20T10:57:03.510Z,11.83
2023-04-20T11:02:31.875Z,12.40
2023-04-20T11:05:10.771Z,12.29
2023-04-20T11:08:11.058Z,12.31
2023-04-20T11:10:41.057Z,12.74
2023-04-20T11:13:29.777Z,12.73
2023-04-20T11:16:26.225Z,12.33
2023-04-20T11:19:10.445Z,12.03
2023-04-20T11:24:41.414Z,11.25
2023-04-20T11:30:02.732Z,11.17
2023-04-20T11:33:00.612Z,11.01
2023-04-20T11:36:04.581Z,11.08
2023-04-20T11:47:03.451Z,11.48
2023-04-20T11:49:31.067Z,11.23
2023-04-20T11:54:55.520Z,11.44
2023-04-20T11:57:51.761Z,11.24
2023-04-20T12:00:35.198Z,11.29
2023-04-20T12:03:24.745Z,11.22
2023-04-20T12:08:33.615Z,11.53
2023-04-20T12:11:02.639Z,11.91
2023-04-20T12:13:32.816Z,11.72
2023-04-20T12:16:01.128Z,11.62
2023-04-20T12:18:32.327Z,11.38
2023-04-20T12:23:47.565Z,11.43
2023-04-20T12:28:59.004Z,11.65
2023-04-20T12:31:30.998Z,12.15
2023-04-20T12:33:59.404Z,12.55
2023-04-20T12:36:47.140Z,12.63
2023-04-20T12:48:04.646Z,12.56
2023-04-20T12:53:20.337Z,12.73
2023-04-20T12:55:55.071Z,12.35
2023-04-20T12:58:28.577Z,12.60
2023-04-20T13:13:04.594Z,11.84
2023-04-20T13:15:48.808Z,11.79
2023-04-20T13:18:33.759Z,11.79
2023-04-20T13:21:05.116Z,11.78
2023-04-20T13:23:36.474Z,11.64
2023-04-20T13:28:58.830Z,11.86
2023-04-20T13:32:01.840Z,12.11
2023-04-20T13:40:47.727Z,11.82
2023-04-20T13:55:09.837Z,11.64
2023-04-20T13:57:41.909Z,11.98
2023-04-20T14:00:18.928Z,11.94
2023-04-20T14:05:44.663Z,11.82
2023-04-20T14:08:29.854Z,11.58
2023-04-20T14:10:59.604Z,11.72
2023-04-20T14:13:31.374Z,11.74
2023-04-20T14:16:00.653Z,11.76
2023-04-20T14:18:32.448Z,11.76
2023-04-20T14:21:08.867Z,11.25
2023-04-20T14:23:39.080Z,11.55
2023-04-20T14:28:59.363Z,11.28
2023-04-20T14:31:29.118Z,11.36
2023-04-20T14:34:00.079Z,11.65
2023-04-20T14:36:32.319Z,11.60
2023-04-20T14:39:00.687Z,11.27
2023-04-20T14:41:45.240Z,11.83
2023-04-20T14:47:06.591Z,11.69
2023-04-20T14:49:38.793Z,11.46
2023-04-20T14:52:07.614Z,11.46
2023-04-20T14:54:44.508Z,11.52
2023-04-20T14:57:15.430Z,11.37
2023-04-20T14:59:43.431Z,11.50
2023-04-20T15:04:58.018Z,11.21
2023-04-20T15:07:31.668Z,11.44
2023-04-20T15:09:58.680Z,11.44
2023-04-20T15:15:10.674Z,10.93
2023-04-20T15:17:41.319Z,10.75
2023-04-20T15:20:21.513Z,10.41
2023-04-20T15:22:58.651Z,10.71
2023-04-20T15:25:31.822Z,10.04
2023-04-20T15:28:09.732Z,10.25
2023-04-20T15:30:41.516Z,10.56
2023-04-20T15:39:01.448Z,10.29
2023-04-20T15:58:14.281Z,9.86
2023-04-20T16:01:08.806Z,10.01
2023-04-20T16:06:29.018Z,9.74
2023-04-20T16:09:02.750Z,9.58
2023-04-20T16:14:41.141Z,9.60
2023-04-20T16:17:30.891Z,9.96
2023-04-20T16:20:07.985Z,9.48
2023-04-20T16:22:53.028Z,9.92
2023-04-20T16:25:31.470Z,9.57
2023-04-20T16:28:11.107Z,9.81
2023-04-20T16:30:41.014Z,9.80
2023-04-20T16:33:35.955Z,9.75
2023-04-20T16:36:06.674Z,9.67
2023-04-20T16:38:36.665Z,9.65
2023-04-20T16:41:12.884Z,9.15
2023-04-20T16:43:53.281Z,9.09
2023-04-20T16:46:33.926Z,9.48
2023-04-20T16:49:02.216Z,9.50
2023-04-20T16:51:30.734Z,9.23
2023-04-20T16:54:02.117Z,9.50
2023-04-20T16:56:44.698Z,9.27
2023-04-20T16:59:16.640Z,9.40
2023-04-20T17:01:50.644Z,9.00
2023-04-20T17:04:18.733Z,8.77
2023-04-20T17:06:51.258Z,9.30
2023-04-20T17:12:19.818Z,9.13
2023-04-20T17:17:34.738Z,8.91
2023-04-20T17:20:02.529Z,9.07
2023-04-20T17:25:33.198Z,8.70
2023-04-20T17:28:02.827Z,8.64
2023-04-20T17:30:31.474Z,8.72
2023-04-20T17:33:03.115Z,8.48
2023-04-20T17:38:21.986Z,8.63
2023-04-20T17:40:51.816Z,8.60
2023-04-20T17:46:04.103Z,7.80
2023-04-20T17:48:41.405Z,8.39
2023-04-20T17:51:25.133Z,8.39
2023-04-20T17:53:53.931Z,8.38
2023-04-20T17:56:21.245Z,8.35
2023-04-20T17:59:01.070Z,8.29
2023-04-20T18:10:39.399Z,8.22
2023-04-20T18:16:35.483Z,8.21
2023-04-20T18:27:21.643Z,8.02
2023-04-20T18:30:19.822Z,7.97
2023-04-20T18:33:20.283Z,7.83
2023-04-20T18:39:00.261Z,8.02
2023-04-20T18:41:42.347Z,7.97
2023-04-20T18:44:11.138Z,7.82
2023-04-20T18:54:07.174Z,7.32
2023-04-20T18:56:43.817Z,7.18
2023-04-20T18:59:26.548Z,7.09
2023-04-20T19:05:20.403Z,6.54
2023-04-20T19:07:53.755Z,6.71
2023-04-20T19:10:24.993Z,6.63
2023-04-20T19:12:54.072Z,6.53
2023-04-20T19:15:46.797Z,6.87
2023-04-20T19:18:17.722Z,6.90
2023-04-20T19:20:50.203Z,6.93
2023-04-20T19:56:08.792Z,6.91
2023-04-20T19:58:54.017Z,6.87
2023-04-20T20:01:21.728Z,6.80
2023-04-20T20:10:25.977Z,6.59
2023-04-20T20:22:09.110Z,6.64
2023-04-20T20:24:49.064Z,6.91
2023-04-20T20:30:28.228Z,6.59
2023-04-20T20:36:11.030Z,6.60
2023-04-20T20:38:50.239Z,6.65
2023-04-20T20:41:25.504Z,6.63
2023-04-20T20:55:13.397Z,6.57
2023-04-20T21:00:44.879Z,6.62
2023-04-20T21:06:46.107Z,6.51
2023-04-20T21:09:40.022Z,6.65
2023-04-20T21:12:12.100Z,6.60
2023-04-20T21:17:42.084Z,6.84
2023-04-20T21:26:08.209Z,6.80
2023-04-20T21:33:59.654Z,6.87
2023-04-20T21:36:28.068Z,6.81
2023-04-20T21:38:57.356Z,6.85
2023-04-20T21:46:58.631Z,6.78
2023-04-20T21:49:40.190Z,6.90
2023-04-20T21:52:33.666Z,6.94
2023-04-20T21:57:51.829Z,6.99
2023-04-20T22:00:50.314Z,6.99
2023-04-20T22:03:20.141Z,6.96
2023-04-20T22:05:50.006Z,6.97
2023-04-20T22:08:22.462Z,6.97
2023-04-20T22:10:53.268Z,6.97
2023-04-20T22:13:21.228Z,6.95
2023-04-20T22:15:53.552Z,6.90
2023-04-20T22:18:48.921Z,6.81
2023-04-20T22:21:15.750Z,6.79
2023-04-20T22:23:42.472Z,6.69
2023-04-20T22:26:20.604Z,6.85
2023-04-20T22:28:50.597Z,6.80
2023-04-20T22:31:18.556Z,6.83
2023-04-20T22:33:45.572Z,6.83
2023-04-20T22:36:12.526Z,6.87
2023-04-20T22:38:47.507Z,6.92
2023-04-20T22:41:17.441Z,6.95
2023-04-20T22:43:47.639Z,6.95
2023-04-20T22:46:15.732Z,6.90
2023-04-20T22:48:43.236Z,6.88
2023-04-20T22:51:17.048Z,6.84
2023-04-20T22:53:51.152Z,6.84
2023-04-20T22:56:27.622Z,6.84
2023-04-20T22:58:58.058Z,6.81
2023-04-20T23:01:29.782Z,6.76
2023-04-20T23:04:29.153Z,6.79
2023-04-20T23:07:00.072Z,6.76
2023-04-20T23:09:36.990Z,6.87
2023-04-20T23:12:06.659Z,6.87
2023-04-20T23:14:34.434Z,6.85
2023-04-20T23:17:02.847Z,6.73
2023-04-20T23:19:34.510Z,6.79
2023-04-20T23:22:10.060Z,6.89
2023-04-20T23:24:41.737Z,6.80
2023-04-20T23:27:12.991Z,6.65
2023-04-20T23:29:40.527Z,6.74
2023-04-20T23:32:09.067Z,6.85
2023-04-20T23:34:37.050Z,6.84
2023-04-20T23:37:05.274Z,6.92
2023-04-20T23:39:41.637Z,6.81
2023-04-20T23:42:09.277Z,6.96
2023-04-20T23:44:37.106Z,7.02
2023-04-20T23:47:06.469Z,6.97
2023-04-20T23:49:37.122Z,6.85
2023-04-20T23:54:44.886Z,6.94
